Overview Statistics Trail Chart Weather Telemetry Raw packets
 

This is the latest recevied weather packets stored in our database for station/object K7KAR-2. If no packets are shown the sender has not sent any weather packets the latest 10 day(s).

<< 96 97 98 99 100 101 102 >>
Time Temp. Humidity Pressure Rain* Wind** Luminosity Snow
1787895311 23.33° C 45% 1013.3 hPa 0 mm - 0 W/m² -
1787895006 23.33° C 44% 1013 hPa 0 mm - 0 W/m² -
1787894701 23.33° C 44% 1013 hPa 0 mm - 0 W/m² -
1787894395 23.33° C 45% 1013.2 hPa 0 mm - 0 W/m² -
1787894090 23.33° C 45% 1012.9 hPa 0 mm - 0 W/m² -
1787893788 23.33° C 46% 1012.7 hPa 0 mm - 0 W/m² -
1787893482 23.33° C 46% 1012.5 hPa 0 mm - 0 W/m² -
1787893178 23.33° C 47% 1012.6 hPa 0 mm - 0 W/m² -
1787892874 23.33° C 45% 1012.3 hPa 0 mm - 0 W/m² -
1787892571 22.22° C 48% 1012.9 hPa 0 mm - 0 W/m² -
1787892266 22.78° C 50% 1013.3 hPa 0 mm - 0 W/m² -
1787891962 22.22° C 50% 1013.6 hPa 0 mm - 0 W/m² -
1787891656 22.22° C 51% 1013.8 hPa 0 mm - 0 W/m² -
1787891353 22.78° C 49% 1014.4 hPa 0 mm - 0 W/m² -
1787891041 22.78° C 49% 1014.6 hPa 0 mm - 0 W/m² -
1787890740 22.78° C 48% 1014.7 hPa 0 mm - 0 W/m² -
1787890435 23.33° C 47% 1014.8 hPa 0 mm - 0 W/m² -
1787890131 23.33° C 46% 1015.3 hPa 0 mm - 0 W/m² -
1787889830 22.78° C 47% 1015.1 hPa 0 mm - 0 W/m² -
1787889526 21.11° C 51% 1015.5 hPa 0 mm - 0 W/m² -
1787889225 21.11° C 55% 1015 hPa 0 mm - 0 W/m² -
1787888920 21.11° C 56% 1015.1 hPa 0 mm - 0 W/m² -
1787888615 21.67° C 54% 1015.6 hPa 0 mm - 0 W/m² -
1787888317 21.67° C 53% 1015.3 hPa 0 mm - 0 W/m² -
1787888005 21.11° C 56% 1015.6 hPa 0 mm - 0 W/m² -

* Rain latest hour (hover to see other rain measurements)
** Current wind speed in m/s (hover to see current wind gust speed)